Nearby METAR Reports

 

KMTN - Baltimore/Martin, Maryland, USA
Distance from station: SSE 8mi, 13km
Updated: Mon, 22-Dec-2014 2:45pm EST
Drizzle, Overcast
Drizzle, Overcast
 Wind from N
Wind: N 5 mph , 7 km/h
Temperature: 39°F , 4°C
Wind Chill: 35°F , 2°C
Dew Point: 34°F , 1°C
Humidity: 81%
Barometer: 30.21 inHg , 1023 hPa
Summary: Drizzle
Clouds: Overcast
Visibility: 10 miles , 16 km
Cloud details: Overcast 6500 ft
2014/12/22 19:45 KMTN 221945Z 01004KT 10SM DZ OVC065 04/01 A3021
KDMH - Baltimore/Dwntwn, Maryland, USA
Distance from station: SW 12mi, 19km
Updated: Mon, 22-Dec-2014 2:54pm EST

 
Temperature: 37°F , 3°C
Dew Point: 30°F , -1°C
Humidity: 75%
Barometer: 30.18 inHg , 1022 hPa
2014/12/22 19:54 KDMH 221954Z AUTO 03/M01 A3018 RMK AO1 SLP219 P0001 T00281011
 
KBWI - Balto/Wash Intl, Maryland, USA
Distance from station: SSW 20mi, 33km
Updated: Mon, 22-Dec-2014 2:54pm EST
Light rain, Mist, Overcast
Light rain, Mist, Overcast
 Wind from calm
Wind: Calm
Temperature: 36°F , 2°C
Dew Point: 30°F , -1°C
Humidity: 81%
Barometer: 30.18 inHg , 1022 hPa
Summary: Light rain, Mist
Clouds: Overcast
Visibility: 2 1/2 miles , 2 km
Cloud details: Overcast 4300 ft
2014/12/22 19:54 KBWI 221954Z 00000KT 2 1/2SM -RA BR OVC043 02/M01 A3018 RMK AO2 SLP222 P0002 T00171006
KDMW - Carroll Cnty, Maryland, USA
Distance from station: WNW 30mi, 48km
Updated: Mon, 22-Dec-2014 3:20pm EST
Drizzle, Overcast
Drizzle, Overcast
 Wind from calm
Wind: Calm
Temperature: 34°F , 1°C
Dew Point: 30°F , -1°C
Humidity: 87%
Barometer: 30.15 inHg , 1021 hPa
Summary: Drizzle
Clouds: Overcast
Visibility: 2 1/2 miles , 2 km
Cloud details: Overcast 4200 ft
2014/12/22 20:20 KDMW 222020Z AUTO 00000KT 2 1/2SM DZ OVC042 01/M01 A3015 RMK AO2
 
KNAK - Annapolis/Naval, Maryland, USA
Distance from station: S 30mi, 48km
Updated: Mon, 22-Dec-2014 2:58pm EST
Light rain, Mist, Overcast
Light rain, Mist, Overcast
 Wind from N
Wind: N 7 mph , 11 km/h
Temperature: 36°F , 2°C
Wind Chill: 30°F , -1°C
Dew Point: 34°F , 1°C
Humidity: 93%
Barometer: 30.18 inHg , 1022 hPa
Summary: Light rain, Mist
Clouds: Overcast
Visibility: 3 miles , 5 km
Cloud details: Few Clouds 900 ft
Partly cloudy 2400 ft
Overcast 4500 ft
2014/12/22 19:58 KNAK 221958Z AUTO 01006KT 3SM -RA BR FEW009 SCT024 OVC045 02/01 A3018 RMK AO2 P0000 T00170006
KW29 - Stevensville, Maryland, USA
Distance from station: SSE 31mi, 50km
Updated: Mon, 22-Dec-2014 3:21pm EST
Light Drizzle
Light Drizzle
 Wind from NNE
Wind: NNE 5 mph , 7 km/h
Temperature: 36°F , 2°C
Wind Chill: 32°F , 0°C
Dew Point: 34°F , 1°C
Humidity: 93%
Barometer: 30.17 inHg , 1021.7 hPa
Summary: Light Drizzle
Visibility: 4 miles , 6 km
2014/12/22 20:21 KW29 222021Z AUTO 02004KT 4SM -DZ 02/01 A3017 RMK AO1
 
KCGS - College Park, Maryland, USA
Distance from station: SW 38mi, 61km
Updated: Mon, 22-Dec-2014 3:20pm EST
Overcast
Overcast
 Wind from NNE
Wind: NNE 5 mph , 7 km/h
Temperature: 34°F , 1°C
Wind Chill: 29°F , -2°C
Dew Point: 34°F , 1°C
Humidity: 100%
Barometer: 30.16 inHg , 1021.3 hPa
Clouds: Overcast
Visibility: 2 1/2 miles , 2 km
Cloud details: Partly cloudy 800 ft
Mostly cloudy 2500 ft
Overcast 3000 ft
2014/12/22 20:20 KCGS 222020Z AUTO 02004KT 2 1/2SM SCT008 BKN025 OVC030 01/01 A3016 RMK AO1
KGAI - Gaithersburg, Maryland, USA
Distance from station: WSW 40mi, 65km
Updated: Mon, 22-Dec-2014 3:15pm EST
Overcast
Overcast
 Wind from NE
Wind: NE 6 mph , 9 km/h
Temperature: 34°F , 1°C
Wind Chill: 29°F , -2°C
Dew Point: 30°F , -1°C
Humidity: 87%
Barometer: 30.19 inHg , 1022.4 hPa
Clouds: Overcast
Visibility: 2 1/2 miles , 2 km
Cloud details: Mostly cloudy 800 ft
Mostly cloudy 3000 ft
Overcast 4400 ft
2014/12/22 20:15 KGAI 222015Z 04005KT 2 1/2SM BKN008 BKN030 OVC044 01/M01 A3019 RMK AO1
 
KTHV - York, Pennsylvania, USA
Distance from station: NNW 40mi, 65km
Updated: Mon, 22-Dec-2014 2:53pm EST
Haze, Overcast
Haze, Overcast
 Wind from calm
Wind: Calm
Temperature: 34°F , 1°C
Dew Point: 27°F , -3°C
Humidity: 75%
Barometer: 30.19 inHg , 1022.4 hPa
Summary: Haze
Clouds: Overcast
Visibility: 5 miles , 8 km
Cloud details: Few Clouds 1500 ft
Overcast 3100 ft
2014/12/22 19:53 KTHV 221953Z AUTO 00000KT 5SM HZ FEW015 OVC031 01/M03 A3019 RMK AO2 SLP233 T00111028
KFDK - Frederick, Maryland, USA
Distance from station: W 47mi, 75km
Updated: Mon, 22-Dec-2014 2:50pm EST
Mist, Overcast
Mist, Overcast
 Wind from NNE
Wind: NNE 7 mph , 11 km/h
Temperature: 36°F , 2°C
Wind Chill: 30°F , -1°C
Dew Point: 28°F , -2°C
Humidity: 75%
Barometer: 30.20 inHg , 1022.7 hPa
Summary: Mist
Clouds: Overcast
Visibility: 3 miles , 5 km
Cloud details: Overcast 2900 ft
2014/12/22 19:50 KFDK 221950Z 03006KT 3SM BR OVC029 02/M02 A3020
 
KESN - Easton/Newnam, Maryland, USA
Distance from station: SSE 48mi, 78km
Updated: Mon, 22-Dec-2014 2:50pm EST
Light rain, Overcast
Light rain, Overcast
 Wind from NE
Wind: NE 8 mph , 13 km/h
Temperature: 39°F , 4°C
Wind Chill: 33°F , 1°C
Dew Point: 39°F , 4°C
Humidity: 100%
Barometer: 30.21 inHg , 1023 hPa
Summary: Light rain
Clouds: Overcast
Visibility: 3 miles , 5 km
Cloud details: Mostly cloudy 900 ft
Mostly cloudy 1300 ft
Overcast 3700 ft
2014/12/22 19:50 KESN 221950Z 04007KT 3SM -RA BKN009 BKN013 OVC037 04/04 A3021
KDCA - Washington/Natl, Washington D.c., USA
Distance from station: SW 49mi, 79km
Updated: Mon, 22-Dec-2014 3:04pm EST
Light rain, Overcast
Light rain, Overcast
 Wind from NNE
Wind: NNE 10 mph , 17 km/h
Temperature: 37°F , 3°C
Wind Chill: 30°F , -1°C
Dew Point: 30°F , -1°C
Humidity: 75%
Barometer: 30.17 inHg , 1021.7 hPa
Summary: Light rain
Clouds: Overcast
Visibility: 2 1/2 miles , 2 km
Cloud details: Mostly cloudy 1000 ft
Overcast 3000 ft
2014/12/22 20:04 KDCA 222004Z 03009KT 2 1/2SM -RA BKN010 OVC030 03/M01 A3017 RMK AO2 P0001
 
KLNS - Lancaster, Pennsylvania, USA
Distance from station: N 49mi, 79km
Updated: Mon, 22-Dec-2014 2:53pm EST
Overcast
Overcast
 Wind from E
Wind: E 5 mph , 7 km/h
Temperature: 37°F , 3°C
Wind Chill: 33°F , 1°C
Dew Point: 30°F , -1°C
Humidity: 75%
Barometer: 30.19 inHg , 1022.4 hPa
Clouds: Overcast
Visibility: 8 miles , 13 km
Cloud details: Mostly cloudy 3800 ft
Overcast 7500 ft
2014/12/22 19:53 KLNS 221953Z 08004KT 8SM BKN038 OVC075 03/M01 A3019 RMK AO2 SLP226 T00331011
KILG - Wilmington, Delaware, USA
Distance from station: ENE 50mi, 81km
Updated: Mon, 22-Dec-2014 2:51pm EST
Overcast
Overcast
 Wind from ENE
Wind: ENE 8 mph , 13 km/h
Temperature: 43°F , 6°C
Wind Chill: 38°F , 3°C
Dew Point: 34°F , 1°C
Humidity: 71%
Barometer: 30.20 inHg , 1022.7 hPa
Clouds: Overcast
Visibility: 9 miles , 14 km
Cloud details: Overcast 8000 ft
2014/12/22 19:51 KILG 221951Z 06007KT 9SM OVC080 06/01 A3020 RMK AO2 SLP228 T00560006